createdAt,value
2023-04-27T00:01:44.064Z,6.04
2023-04-27T00:04:11.594Z,6.03
2023-04-27T00:06:38.866Z,6.05
2023-04-27T00:09:06.025Z,6.08
2023-04-27T00:11:33.100Z,6.08
2023-04-27T00:14:00.184Z,6.08
2023-04-27T00:16:27.254Z,6.10
2023-04-27T00:18:54.337Z,6.12
2023-04-27T00:21:21.569Z,6.15
2023-04-27T00:23:48.606Z,6.15
2023-04-27T00:26:16.331Z,6.15
2023-04-27T00:28:44.299Z,6.19
2023-04-27T00:31:11.360Z,6.20
2023-04-27T00:33:38.483Z,6.19
2023-04-27T00:36:06.125Z,6.18
2023-04-27T00:38:33.231Z,6.18
2023-04-27T00:41:08.010Z,6.17
2023-04-27T00:43:45.836Z,6.18
2023-04-27T00:46:17.013Z,6.16
2023-04-27T00:48:44.833Z,6.19
2023-04-27T00:51:12.052Z,6.18
2023-04-27T00:53:39.500Z,6.17
2023-04-27T00:56:07.753Z,6.18
2023-04-27T00:58:35.059Z,6.17
2023-04-27T01:01:02.369Z,6.19
2023-04-27T01:03:31.036Z,6.19
2023-04-27T01:06:01.674Z,6.20
2023-04-27T01:08:29.496Z,6.22
2023-04-27T01:10:56.730Z,6.23
2023-04-27T01:13:23.799Z,6.24
2023-04-27T01:15:50.880Z,6.23
2023-04-27T01:18:18.032Z,6.21
2023-04-27T01:20:45.136Z,6.19
2023-04-27T01:23:17.250Z,6.19
2023-04-27T01:25:45.038Z,6.17
2023-04-27T01:28:12.752Z,6.14
2023-04-27T01:30:39.953Z,6.11
2023-04-27T01:33:07.164Z,6.09
2023-04-27T01:35:34.417Z,6.06
2023-04-27T01:38:01.736Z,6.04
2023-04-27T01:40:29.398Z,6.03
2023-04-27T01:42:56.606Z,6.05
2023-04-27T01:45:23.804Z,6.07
2023-04-27T01:47:52.487Z,6.09
2023-04-27T01:50:20.704Z,6.11
2023-04-27T01:52:47.974Z,6.14
2023-04-27T01:55:15.140Z,6.14
2023-04-27T01:57:42.513Z,6.13
2023-04-27T02:00:10.219Z,6.11
2023-04-27T02:02:51.308Z,6.08
2023-04-27T02:05:18.643Z,6.04
2023-04-27T02:07:46.049Z,6.01
2023-04-27T02:10:13.318Z,5.99
2023-04-27T02:12:40.694Z,5.99
2023-04-27T02:15:09.041Z,5.97
2023-04-27T02:17:36.263Z,5.97
2023-04-27T02:20:03.413Z,5.95
2023-04-27T02:22:30.505Z,5.94
2023-04-27T02:24:57.563Z,5.95
2023-04-27T02:27:24.737Z,5.94
2023-04-27T02:29:52.284Z,5.93
2023-04-27T02:32:19.792Z,5.93
2023-04-27T02:34:46.862Z,5.94
2023-04-27T02:37:13.825Z,5.94
2023-04-27T02:39:41.914Z,5.97
2023-04-27T02:42:09.033Z,5.99
2023-04-27T02:44:36.309Z,6.01
2023-04-27T02:47:03.551Z,6.01
2023-04-27T02:49:30.777Z,6.01
2023-04-27T02:51:57.850Z,6.00
2023-04-27T02:54:25.605Z,5.97
2023-04-27T02:56:52.689Z,5.94
2023-04-27T02:59:19.903Z,5.89
2023-04-27T03:01:47.105Z,5.86
2023-04-27T03:04:15.368Z,5.88
2023-04-27T03:06:42.703Z,5.88
2023-04-27T03:09:13.226Z,5.91
2023-04-27T03:11:40.590Z,5.94
2023-04-27T03:14:07.725Z,5.92
2023-04-27T03:16:35.271Z,5.91
2023-04-27T03:19:02.375Z,5.87
2023-04-27T03:21:31.917Z,5.85
2023-04-27T03:23:59.029Z,5.83
2023-04-27T03:26:26.503Z,5.80
2023-04-27T03:28:53.686Z,5.77
2023-04-27T03:31:20.721Z,5.73
2023-04-27T03:33:47.750Z,5.73
2023-04-27T03:36:15.611Z,5.72
2023-04-27T03:38:42.801Z,5.71
2023-04-27T03:41:10.071Z,5.71
2023-04-27T03:43:37.208Z,5.68
2023-04-27T03:46:04.443Z,5.62
2023-04-27T03:48:32.033Z,5.57
2023-04-27T03:51:00.664Z,5.55
2023-04-27T03:53:27.815Z,5.54
2023-04-27T03:55:55.002Z,5.53
2023-04-27T03:58:22.088Z,5.50
2023-04-27T04:01:06.785Z,5.51
2023-04-27T04:03:34.040Z,5.50
2023-04-27T04:06:03.665Z,5.50
2023-04-27T04:08:30.879Z,5.51
2023-04-27T04:10:57.940Z,5.52
2023-04-27T04:13:25.050Z,5.51
2023-04-27T04:16:01.772Z,5.52
2023-04-27T04:18:28.921Z,5.55
2023-04-27T04:20:56.334Z,5.57
2023-04-27T04:23:23.740Z,5.58
2023-04-27T04:25:51.408Z,5.59
2023-04-27T04:28:20.301Z,5.61
2023-04-27T04:30:47.600Z,5.64
2023-04-27T04:33:14.952Z,5.65
2023-04-27T04:35:42.334Z,5.66
2023-04-27T04:38:10.775Z,5.68
2023-04-27T04:40:43.839Z,5.67
2023-04-27T04:43:13.481Z,5.68
2023-04-27T04:45:42.797Z,5.70
2023-04-27T04:48:10.427Z,5.71
2023-04-27T04:50:39.469Z,5.75
2023-04-27T04:53:06.654Z,5.82
2023-04-27T04:55:33.932Z,5.89
2023-04-27T04:58:01.521Z,5.96
2023-04-27T05:00:28.857Z,6.01
2023-04-27T05:02:56.072Z,6.08
2023-04-27T05:05:23.310Z,6.13
2023-04-27T05:07:50.474Z,6.19
2023-04-27T05:10:17.751Z,6.22
2023-04-27T05:12:44.784Z,6.24
2023-04-27T05:15:12.158Z,6.21
2023-04-27T05:17:39.331Z,6.22
2023-04-27T05:20:07.965Z,6.24
2023-04-27T05:22:35.033Z,6.26
2023-04-27T05:25:02.221Z,6.29
2023-04-27T05:27:29.561Z,6.33
2023-04-27T05:29:56.899Z,6.36
2023-04-27T05:32:23.997Z,6.42
2023-04-27T05:34:51.350Z,6.45
2023-04-27T05:37:18.501Z,6.48
2023-04-27T05:39:45.613Z,6.53
2023-04-27T05:42:12.838Z,6.59
2023-04-27T05:44:39.979Z,6.61
2023-04-27T05:47:07.099Z,6.68
2023-04-27T05:49:34.129Z,6.79
2023-04-27T05:52:02.050Z,6.91
2023-04-27T05:54:29.151Z,7.00
2023-04-27T05:56:56.260Z,7.11
2023-04-27T05:59:23.394Z,7.24
2023-04-27T06:01:51.037Z,7.34
2023-04-27T06:04:18.296Z,7.41
2023-04-27T06:06:45.704Z,7.48
2023-04-27T06:09:12.962Z,7.57
2023-04-27T06:11:40.198Z,7.69
2023-04-27T06:14:07.311Z,7.85
2023-04-27T06:16:34.477Z,8.02
2023-04-27T06:19:01.732Z,8.19
2023-04-27T06:21:28.786Z,8.36
2023-04-27T06:23:55.851Z,8.50
2023-04-27T06:26:22.875Z,8.66
2023-04-27T06:28:49.981Z,8.87
2023-04-27T06:31:17.701Z,9.04
2023-04-27T06:33:44.831Z,9.15
2023-04-27T06:36:11.956Z,9.17
2023-04-27T06:38:39.118Z,9.23
2023-04-27T06:41:06.791Z,9.37
2023-04-27T06:43:33.942Z,9.53
2023-04-27T06:46:01.561Z,9.64
2023-04-27T06:48:28.691Z,9.63
2023-04-27T06:50:55.945Z,9.62
2023-04-27T06:53:23.060Z,9.59
2023-04-27T06:55:51.131Z,9.60
2023-04-27T06:58:18.271Z,9.66
2023-04-27T07:00:45.404Z,9.71
2023-04-27T07:03:12.660Z,9.82
2023-04-27T07:05:39.945Z,9.89
2023-04-27T07:08:08.742Z,9.99
2023-04-27T07:10:36.567Z,10.13
2023-04-27T07:13:03.623Z,10.27
2023-04-27T07:18:46.189Z,10.37
2023-04-27T07:21:13.206Z,10.33
2023-04-27T07:23:43.343Z,10.34
2023-04-27T07:26:10.580Z,10.48
2023-04-27T07:28:38.418Z,10.62
2023-04-27T07:31:06.299Z,10.66
2023-04-27T07:33:34.221Z,10.70
2023-04-27T07:36:02.809Z,10.73
2023-04-27T07:38:31.367Z,10.76
2023-04-27T07:41:01.828Z,10.69
2023-04-27T07:43:29.008Z,10.55
2023-04-27T07:45:58.557Z,10.42
2023-04-27T07:48:25.929Z,10.30
2023-04-27T07:50:53.885Z,10.16
2023-04-27T07:53:21.290Z,10.03
2023-04-27T07:55:48.374Z,9.98
2023-04-27T07:58:16.240Z,10.02
2023-04-27T08:00:43.411Z,10.00
2023-04-27T08:03:10.979Z,9.94
2023-04-27T08:05:38.516Z,9.88
2023-04-27T08:08:06.154Z,9.84
2023-04-27T08:10:33.444Z,9.76
2023-04-27T08:13:00.544Z,9.70
2023-04-27T08:15:27.889Z,9.63
2023-04-27T08:17:54.999Z,9.59
2023-04-27T08:20:22.154Z,9.55
2023-04-27T08:22:51.153Z,9.70
2023-04-27T08:25:18.273Z,9.88
2023-04-27T08:27:45.634Z,9.96
2023-04-27T08:30:13.284Z,10.04
2023-04-27T08:32:40.516Z,10.27
2023-04-27T08:35:07.938Z,10.53
2023-04-27T08:37:35.062Z,10.70
2023-04-27T08:40:05.907Z,10.70
2023-04-27T08:42:33.070Z,10.64
2023-04-27T08:45:00.358Z,10.55
2023-04-27T08:47:39.160Z,10.57
2023-04-27T08:50:10.029Z,10.69
2023-04-27T08:52:37.663Z,10.68
2023-04-27T08:55:05.296Z,10.53
2023-04-27T08:57:32.351Z,10.39
2023-04-27T09:00:01.094Z,10.26
2023-04-27T09:02:29.926Z,10.19
2023-04-27T09:04:57.437Z,10.09
2023-04-27T09:07:26.232Z,9.98
2023-04-27T09:10:03.729Z,9.91
2023-04-27T09:12:30.970Z,9.94
2023-04-27T09:15:04.118Z,10.10
2023-04-27T09:17:31.529Z,10.34
2023-04-27T09:20:09.247Z,10.56
2023-04-27T09:22:47.429Z,10.89
2023-04-27T09:25:32.063Z,11.11
2023-04-27T09:28:00.664Z,11.26
2023-04-27T09:30:29.446Z,11.53
2023-04-27T09:32:59.426Z,11.83
2023-04-27T09:35:32.757Z,11.94
2023-04-27T09:38:01.110Z,11.82
2023-04-27T09:40:31.289Z,11.60
2023-04-27T09:43:01.934Z,11.37
2023-04-27T09:45:29.731Z,11.21
2023-04-27T09:47:58.581Z,11.29
2023-04-27T09:50:26.127Z,11.42
2023-04-27T09:52:53.374Z,11.50
2023-04-27T09:55:27.442Z,11.60
2023-04-27T09:58:16.068Z,11.71
2023-04-27T10:00:53.430Z,11.88
2023-04-27T10:03:39.127Z,12.06
2023-04-27T10:06:24.979Z,12.21
2023-04-27T10:08:52.209Z,12.21
2023-04-27T10:11:19.564Z,12.12
2023-04-27T10:13:56.015Z,11.97
2023-04-27T10:16:23.182Z,11.79
2023-04-27T10:18:56.567Z,11.60
2023-04-27T10:21:27.212Z,11.47
2023-04-27T10:23:54.680Z,11.55
2023-04-27T10:26:25.770Z,11.67
2023-04-27T10:29:09.256Z,11.58
2023-04-27T10:31:44.119Z,11.44
2023-04-27T10:34:15.838Z,11.40
2023-04-27T10:36:43.119Z,11.42
2023-04-27T10:39:29.921Z,11.41
2023-04-27T10:42:03.482Z,11.41
2023-04-27T10:44:32.280Z,11.52
2023-04-27T10:47:13.346Z,11.80
2023-04-27T10:49:40.860Z,12.14
2023-04-27T10:52:08.502Z,12.44
2023-04-27T10:54:37.564Z,12.73
2023-04-27T10:57:08.896Z,12.92
2023-04-27T10:59:48.507Z,12.91
2023-04-27T11:02:16.152Z,12.69
2023-04-27T11:04:43.458Z,12.49
2023-04-27T11:07:11.080Z,12.27
2023-04-27T11:09:40.735Z,12.00
2023-04-27T11:12:09.473Z,11.74
2023-04-27T11:14:37.116Z,11.53
2023-04-27T11:17:05.206Z,11.34
2023-04-27T11:19:32.817Z,11.21
2023-04-27T11:22:07.148Z,11.20
2023-04-27T11:24:34.401Z,11.25
2023-04-27T11:27:01.599Z,11.28
2023-04-27T11:29:38.047Z,11.27
2023-04-27T11:32:06.091Z,11.26
2023-04-27T11:34:39.059Z,11.23
2023-04-27T11:37:17.984Z,11.20
2023-04-27T11:39:46.072Z,11.15
2023-04-27T11:42:20.746Z,11.11
2023-04-27T11:45:01.425Z,11.10
2023-04-27T11:47:30.350Z,11.10
2023-04-27T11:49:59.966Z,11.10
2023-04-27T11:52:31.916Z,11.06
2023-04-27T11:55:00.605Z,11.02
2023-04-27T11:57:29.612Z,11.01
2023-04-27T12:00:00.567Z,11.03
2023-04-27T12:02:29.365Z,11.03
2023-04-27T12:04:58.864Z,11.03
2023-04-27T12:07:26.535Z,11.04
2023-04-27T12:09:53.650Z,11.03
2023-04-27T12:12:22.798Z,11.03
2023-04-27T12:14:51.110Z,10.95
2023-04-27T12:17:18.448Z,10.87
2023-04-27T12:19:45.690Z,10.81
2023-04-27T12:22:13.022Z,10.78
2023-04-27T12:24:40.176Z,10.70
2023-04-27T12:27:07.789Z,10.62
2023-04-27T12:29:34.984Z,10.58
2023-04-27T12:32:02.225Z,10.55
2023-04-27T12:34:29.516Z,10.53
2023-04-27T12:36:56.691Z,10.50
2023-04-27T12:39:25.606Z,10.49
2023-04-27T12:41:53.636Z,10.45
2023-04-27T12:44:21.703Z,10.41
2023-04-27T12:46:49.212Z,10.34
2023-04-27T12:49:17.686Z,10.30
2023-04-27T12:51:46.858Z,10.27
2023-04-27T12:54:14.306Z,10.26
2023-04-27T12:56:42.140Z,10.30
2023-04-27T12:59:09.484Z,10.34
2023-04-27T13:01:36.858Z,10.36
2023-04-27T13:04:06.166Z,10.37
2023-04-27T13:06:33.457Z,10.40
2023-04-27T13:09:00.761Z,10.46
2023-04-27T13:11:27.957Z,10.52
2023-04-27T13:13:55.308Z,10.61
2023-04-27T13:16:25.499Z,10.65
2023-04-27T13:18:53.560Z,10.67
2023-04-27T13:21:21.397Z,10.69
2023-04-27T13:23:49.411Z,10.72
2023-04-27T13:26:17.159Z,10.74
2023-04-27T13:28:44.307Z,10.75
2023-04-27T13:31:12.047Z,10.75
2023-04-27T13:33:42.271Z,10.77
2023-04-27T13:36:10.966Z,10.80
2023-04-27T13:38:38.418Z,10.80
2023-04-27T13:41:06.817Z,10.80
2023-04-27T13:43:34.283Z,10.78
2023-04-27T13:46:02.605Z,10.75
2023-04-27T13:48:31.073Z,10.73
2023-04-27T13:50:58.363Z,10.73
2023-04-27T13:53:26.120Z,10.73
2023-04-27T13:55:56.765Z,10.77
2023-04-27T13:58:26.035Z,10.82
2023-04-27T14:00:54.078Z,10.91
2023-04-27T14:03:21.887Z,10.97
2023-04-27T14:05:51.113Z,11.00
2023-04-27T14:08:18.651Z,11.03
2023-04-27T14:10:46.536Z,10.99
2023-04-27T14:13:14.064Z,10.94
2023-04-27T14:15:41.959Z,10.93
2023-04-27T14:18:09.488Z,10.91
2023-04-27T14:20:38.065Z,10.85
2023-04-27T14:23:06.364Z,10.82
2023-04-27T14:25:34.871Z,10.82
2023-04-27T14:28:06.426Z,10.85
2023-04-27T14:30:34.842Z,10.94
2023-04-27T14:33:02.707Z,11.03
2023-04-27T14:35:30.236Z,11.08
2023-04-27T14:38:02.346Z,11.10
2023-04-27T14:40:30.746Z,11.10
2023-04-27T14:42:58.705Z,11.02
2023-04-27T14:45:33.515Z,10.88
2023-04-27T14:48:04.342Z,10.73
2023-04-27T14:50:31.899Z,10.62
2023-04-27T14:52:58.968Z,10.54
2023-04-27T14:55:26.072Z,10.45
2023-04-27T14:57:53.250Z,10.40
2023-04-27T15:00:20.579Z,10.36
2023-04-27T15:02:47.845Z,10.36
2023-04-27T15:05:15.026Z,10.42
2023-04-27T15:07:42.154Z,10.49
2023-04-27T15:10:09.765Z,10.53
2023-04-27T15:12:36.842Z,10.57
2023-04-27T15:15:05.037Z,10.62
2023-04-27T15:17:32.179Z,10.65
2023-04-27T15:19:59.394Z,10.66
2023-04-27T15:22:28.008Z,10.66
2023-04-27T15:24:55.067Z,10.63
2023-04-27T15:27:22.315Z,10.56
2023-04-27T15:29:49.424Z,10.54
2023-04-27T15:32:16.659Z,10.55
2023-04-27T15:34:44.813Z,10.55
2023-04-27T15:37:12.255Z,10.55
2023-04-27T15:39:39.363Z,10.59
2023-04-27T15:42:06.582Z,10.61
2023-04-27T15:44:33.711Z,10.59
2023-04-27T15:47:00.946Z,10.56
2023-04-27T15:49:28.735Z,10.53
2023-04-27T15:51:55.884Z,10.49
2023-04-27T15:54:23.264Z,10.47
2023-04-27T15:56:50.486Z,10.44
2023-04-27T15:59:18.456Z,10.40
2023-04-27T16:01:45.567Z,10.38
2023-04-27T16:04:12.785Z,10.38
2023-04-27T16:06:39.984Z,10.38
2023-04-27T16:09:10.431Z,10.39
2023-04-27T16:11:37.989Z,10.39
2023-04-27T16:14:05.248Z,10.38
2023-04-27T16:16:32.425Z,10.35
2023-04-27T16:18:59.599Z,10.32
2023-04-27T16:21:28.120Z,10.30
2023-04-27T16:23:55.426Z,10.28
2023-04-27T16:26:22.600Z,10.26
2023-04-27T16:28:50.612Z,10.25
2023-04-27T16:31:17.683Z,10.24
2023-04-27T16:33:47.124Z,10.21
2023-04-27T16:36:14.345Z,10.14
2023-04-27T16:38:41.699Z,10.13
2023-04-27T16:41:08.848Z,10.10
2023-04-27T16:43:35.998Z,10.03
2023-04-27T16:46:03.140Z,9.94
2023-04-27T16:48:30.610Z,9.86
2023-04-27T16:50:57.812Z,9.79
2023-04-27T16:53:25.595Z,9.76
2023-04-27T16:55:52.950Z,9.76
2023-04-27T16:58:20.064Z,9.74
2023-04-27T17:00:47.101Z,9.75
2023-04-27T17:03:14.731Z,9.76
2023-04-27T17:05:42.039Z,9.77
2023-04-27T17:08:09.142Z,9.78
2023-04-27T17:10:36.970Z,9.76
2023-04-27T17:13:05.125Z,9.72
2023-04-27T17:15:32.450Z,9.69
2023-04-27T17:18:02.478Z,9.63
2023-04-27T17:20:29.617Z,9.56
2023-04-27T17:22:56.782Z,9.51
2023-04-27T17:25:24.092Z,9.48
2023-04-27T17:27:51.466Z,9.45
2023-04-27T17:30:18.682Z,9.43
2023-04-27T17:32:46.128Z,9.42
2023-04-27T17:35:13.367Z,9.41
2023-04-27T17:37:40.924Z,9.41
2023-04-27T17:40:09.260Z,9.40
2023-04-27T17:42:36.632Z,9.39
2023-04-27T17:45:04.047Z,9.37
2023-04-27T17:47:32.284Z,9.34
2023-04-27T17:49:59.440Z,9.32
2023-04-27T17:52:26.508Z,9.29
2023-04-27T17:54:53.610Z,9.26
2023-04-27T17:57:20.679Z,9.24
2023-04-27T17:59:47.832Z,9.21
2023-04-27T18:02:15.100Z,9.18
2023-04-27T18:04:42.759Z,9.14
2023-04-27T18:07:09.898Z,9.11
2023-04-27T18:09:37.033Z,9.07
2023-04-27T18:12:10.754Z,9.05
2023-04-27T18:14:38.630Z,9.03
2023-04-27T18:17:06.369Z,9.01
2023-04-27T18:19:33.477Z,8.97
2023-04-27T18:22:00.615Z,8.92
2023-04-27T18:24:27.672Z,8.86
2023-04-27T18:26:54.912Z,8.83
2023-04-27T18:29:22.158Z,8.80
2023-04-27T18:31:49.423Z,8.76
2023-04-27T18:34:16.667Z,8.72
2023-04-27T18:36:43.714Z,8.68
2023-04-27T18:39:10.969Z,8.65
2023-04-27T18:41:38.054Z,8.61
2023-04-27T18:44:06.202Z,8.54
2023-04-27T18:46:33.693Z,8.49
2023-04-27T18:49:01.754Z,8.43
2023-04-27T18:51:29.371Z,8.41
2023-04-27T18:53:56.540Z,8.40
2023-04-27T18:56:23.943Z,8.40
2023-04-27T18:58:51.255Z,8.38
2023-04-27T19:01:23.723Z,8.35
2023-04-27T19:03:51.536Z,8.32
2023-04-27T19:06:20.959Z,8.29
2023-04-27T19:08:48.637Z,8.22
2023-04-27T19:11:15.790Z,8.16
2023-04-27T19:13:44.301Z,8.10
2023-04-27T19:16:12.204Z,8.05
2023-04-27T19:18:40.757Z,8.04
2023-04-27T19:21:10.077Z,8.04
2023-04-27T19:23:37.666Z,8.01
2023-04-27T19:28:34.923Z,7.96
2023-04-27T19:31:02.353Z,7.95
2023-04-27T19:33:29.660Z,7.93
2023-04-27T19:35:58.781Z,7.89
2023-04-27T19:38:26.262Z,7.85
2023-04-27T19:40:53.494Z,7.82
2023-04-27T19:43:21.009Z,7.75
2023-04-27T19:45:51.666Z,7.67
2023-04-27T19:48:18.880Z,7.60
2023-04-27T19:50:46.093Z,7.53
2023-04-27T19:53:13.419Z,7.48
2023-04-27T19:55:40.849Z,7.48
2023-04-27T19:58:08.127Z,7.46
2023-04-27T20:00:35.460Z,7.41
2023-04-27T20:03:02.780Z,7.35
2023-04-27T20:05:30.428Z,7.30
2023-04-27T20:07:57.753Z,7.28
2023-04-27T20:10:24.780Z,7.29
2023-04-27T20:12:56.557Z,7.27
2023-04-27T20:15:25.473Z,7.24
2023-04-27T20:17:53.823Z,7.20
2023-04-27T20:20:21.130Z,7.14
2023-04-27T20:22:48.291Z,7.09
2023-04-27T20:25:15.950Z,7.05
2023-04-27T20:27:42.999Z,7.03
2023-04-27T20:30:10.558Z,7.01
2023-04-27T20:32:40.353Z,6.99
2023-04-27T20:35:11.567Z,6.97
2023-04-27T20:37:40.180Z,6.98
2023-04-27T20:40:08.190Z,6.99
2023-04-27T20:42:36.121Z,7.02
2023-04-27T20:45:05.536Z,7.01
2023-04-27T20:47:32.787Z,7.01
2023-04-27T20:49:59.998Z,7.00
2023-04-27T20:52:30.580Z,6.97
2023-04-27T20:54:58.950Z,6.92
2023-04-27T20:57:26.166Z,6.86
2023-04-27T20:59:53.182Z,6.80
2023-04-27T21:02:20.452Z,6.76
2023-04-27T21:04:47.786Z,6.73
2023-04-27T21:07:15.028Z,6.70
2023-04-27T21:09:42.224Z,6.68
2023-04-27T21:12:09.715Z,6.69
2023-04-27T21:14:37.615Z,6.72
2023-04-27T21:17:04.792Z,6.68
2023-04-27T21:19:32.037Z,6.66
2023-04-27T21:21:59.178Z,6.67
2023-04-27T21:24:26.251Z,6.66
2023-04-27T21:26:53.435Z,6.65
2023-04-27T21:29:20.556Z,6.66
2023-04-27T21:31:47.630Z,6.67
2023-04-27T21:34:15.094Z,6.66
2023-04-27T21:36:42.466Z,6.62
2023-04-27T21:39:09.539Z,6.60
2023-04-27T21:41:37.241Z,6.54
2023-04-27T21:44:04.486Z,6.48
2023-04-27T21:46:31.746Z,6.46
2023-04-27T21:48:58.908Z,6.42
2023-04-27T21:51:26.426Z,6.40
2023-04-27T21:53:53.645Z,6.38
2023-04-27T21:56:21.301Z,6.37
2023-04-27T21:58:48.484Z,6.34
2023-04-27T22:01:15.674Z,6.30
2023-04-27T22:03:43.247Z,6.25
2023-04-27T22:06:10.803Z,6.24
2023-04-27T22:08:38.007Z,6.27
2023-04-27T22:11:05.207Z,6.29
2023-04-27T22:13:32.332Z,6.32
2023-04-27T22:15:59.475Z,6.35
2023-04-27T22:18:26.649Z,6.37
2023-04-27T22:20:58.358Z,6.39
2023-04-27T22:23:25.473Z,6.38
2023-04-27T22:25:52.612Z,6.39
2023-04-27T22:28:19.768Z,6.37
2023-04-27T22:30:47.098Z,6.38
2023-04-27T22:33:14.456Z,6.38
2023-04-27T22:35:41.584Z,6.40
2023-04-27T22:38:09.489Z,6.38
2023-04-27T22:40:36.954Z,6.35
2023-04-27T22:43:04.098Z,6.34
2023-04-27T22:45:32.010Z,6.31
2023-04-27T22:47:59.314Z,6.28
2023-04-27T22:50:26.994Z,6.26
2023-04-27T22:52:54.092Z,6.29
2023-04-27T22:55:21.375Z,6.33
2023-04-27T22:57:50.082Z,6.36
2023-04-27T23:00:17.499Z,6.38
2023-04-27T23:02:44.879Z,6.39
2023-04-27T23:05:12.634Z,6.39
2023-04-27T23:07:43.613Z,6.38
2023-04-27T23:10:11.251Z,6.37
2023-04-27T23:12:38.969Z,6.37
2023-04-27T23:15:07.498Z,6.39
2023-04-27T23:17:36.068Z,6.40
2023-04-27T23:20:24.118Z,6.44
2023-04-27T23:22:54.930Z,6.46
2023-04-27T23:25:22.326Z,6.46
2023-04-27T23:27:51.326Z,6.41
2023-04-27T23:30:20.589Z,6.34
2023-04-27T23:32:47.754Z,6.23
2023-04-27T23:35:14.944Z,6.18
2023-04-27T23:37:42.055Z,6.14
2023-04-27T23:40:09.427Z,6.13
2023-04-27T23:42:36.909Z,6.13
2023-04-27T23:45:05.117Z,6.12
2023-04-27T23:47:34.194Z,6.12
2023-04-27T23:50:02.456Z,6.10
2023-04-27T23:52:29.735Z,6.09
2023-04-27T23:54:58.492Z,6.09
2023-04-27T23:57:25.778Z,6.09
2023-04-27T23:59:53.162Z,6.09
